createdAt,value
2024-04-08T11:31:27.303Z,31.08
2024-04-08T11:33:54.396Z,30.09
2024-04-08T11:36:24.225Z,29.98
2024-04-08T11:38:51.713Z,30.44
2024-04-08T11:41:21.747Z,30.13
2024-04-08T11:43:49.438Z,31.00
2024-04-08T11:46:20.252Z,30.96
2024-04-08T11:48:50.180Z,31.04
2024-04-08T11:51:20.156Z,31.04
2024-04-08T11:53:47.350Z,30.67
2024-04-08T11:56:17.876Z,29.50
2024-04-08T11:58:45.117Z,29.57
2024-04-08T12:01:15.131Z,29.76
2024-04-08T12:03:42.472Z,29.89
2024-04-08T12:06:16.597Z,30.13
2024-04-08T12:08:43.939Z,30.45
2024-04-08T12:11:14.969Z,30.87
2024-04-08T12:13:44.148Z,29.95
2024-04-08T12:16:14.404Z,30.40
2024-04-08T12:18:41.832Z,29.68
2024-04-08T12:21:14.592Z,29.56
2024-04-08T12:23:41.955Z,28.63
2024-04-08T12:26:12.825Z,29.37
2024-04-08T12:28:39.934Z,29.24
2024-04-08T12:31:09.760Z,28.90
2024-04-08T12:33:37.128Z,28.42
2024-04-08T12:36:07.488Z,28.18
2024-04-08T12:38:37.375Z,29.05
2024-04-08T12:41:07.737Z,28.29
2024-04-08T12:43:46.721Z,28.42
2024-04-08T12:46:21.890Z,29.13
2024-04-08T12:48:49.084Z,29.34
2024-04-08T12:51:19.100Z,28.57
2024-04-08T12:53:48.913Z,29.73
2024-04-08T12:56:18.759Z,29.50
2024-04-08T12:58:45.854Z,29.22
2024-04-08T13:01:16.282Z,30.32
2024-04-08T13:03:43.591Z,29.73
2024-04-08T13:06:13.364Z,29.69
2024-04-08T13:08:40.425Z,29.51
2024-04-08T13:11:12.847Z,28.96
2024-04-08T13:13:42.307Z,28.77
2024-04-08T13:16:13.795Z,28.73
2024-04-08T13:18:43.103Z,28.07
2024-04-08T13:21:13.140Z,28.23
2024-04-08T13:23:40.731Z,28.93
2024-04-08T13:26:14.349Z,28.88
2024-04-08T13:28:41.444Z,28.87
2024-04-08T13:31:11.271Z,29.25
2024-04-08T13:33:38.547Z,28.70
2024-04-08T13:36:11.387Z,29.25
2024-04-08T13:38:38.858Z,29.49
2024-04-08T13:41:09.961Z,28.91
2024-04-08T13:43:42.923Z,28.34
2024-04-08T13:46:14.261Z,29.17
2024-04-08T13:48:41.545Z,28.41
2024-04-08T13:51:11.406Z,28.38
2024-04-08T13:53:38.598Z,28.93
2024-04-08T13:56:09.303Z,28.61
2024-04-08T13:58:36.440Z,28.72
2024-04-08T14:01:08.863Z,28.67
2024-04-08T14:03:36.512Z,28.95
2024-04-08T14:06:06.426Z,28.97
2024-04-08T14:08:33.616Z,29.31
2024-04-08T14:11:04.464Z,29.12
2024-04-08T14:13:31.872Z,29.35
2024-04-08T14:16:01.734Z,29.00
2024-04-08T14:18:31.970Z,29.40
2024-04-08T14:21:02.018Z,28.56
2024-04-08T14:23:29.228Z,29.31
2024-04-08T14:25:58.984Z,29.19
2024-04-08T14:28:26.084Z,28.82
2024-04-08T14:30:55.850Z,28.45
2024-04-08T14:33:23.265Z,28.59
2024-04-08T14:35:55.942Z,28.01
2024-04-08T14:38:46.604Z,28.29
2024-04-08T14:41:12.866Z,28.65
2024-04-08T14:43:47.062Z,29.22
2024-04-08T14:46:25.085Z,28.26
2024-04-08T14:48:52.365Z,27.53
2024-04-08T14:51:33.522Z,27.78
2024-04-08T14:54:06.360Z,26.72
2024-04-08T14:56:36.560Z,27.12
2024-04-08T14:59:04.029Z,26.81
2024-04-08T15:01:34.162Z,27.56
2024-04-08T15:04:02.147Z,27.96
2024-04-08T15:06:34.620Z,28.39
2024-04-08T15:09:01.809Z,28.75
2024-04-08T15:11:35.096Z,28.17
2024-04-08T15:14:02.315Z,27.30
2024-04-08T15:16:32.635Z,27.55
2024-04-08T15:18:59.971Z,27.77
2024-04-08T15:21:29.930Z,26.77
2024-04-08T15:24:00.049Z,27.33
2024-04-08T15:26:30.373Z,27.33
2024-04-08T15:28:57.458Z,28.38
2024-04-08T15:31:27.213Z,28.92
2024-04-08T15:33:54.522Z,29.41
2024-04-08T15:36:24.445Z,29.45
2024-04-08T15:38:51.754Z,29.78
2024-04-08T15:41:24.424Z,29.93
2024-04-08T15:43:51.556Z,29.93
2024-04-08T15:46:21.269Z,29.06
2024-04-08T15:48:48.559Z,29.38
2024-04-08T15:51:19.361Z,29.81
2024-04-08T15:53:46.782Z,30.20
2024-04-08T15:56:16.663Z,30.42
2024-04-08T15:58:46.496Z,30.89
2024-04-08T16:01:16.323Z,30.39
2024-04-08T16:03:43.809Z,30.70
2024-04-08T16:06:15.600Z,29.71
2024-04-08T16:08:44.519Z,29.04
2024-04-08T16:11:21.253Z,29.07
2024-04-08T16:13:51.172Z,29.46
2024-04-08T16:16:21.156Z,28.43
2024-04-08T16:18:48.445Z,28.93
2024-04-08T16:21:23.888Z,29.00
2024-04-08T16:23:55.445Z,29.06
2024-04-08T16:26:27.122Z,29.88
2024-04-08T16:29:01.198Z,29.41
2024-04-08T16:31:34.437Z,29.19
2024-04-08T16:34:02.290Z,30.17
2024-04-08T16:36:32.685Z,30.28
2024-04-08T16:39:00.202Z,30.48
2024-04-08T16:41:30.325Z,29.01
2024-04-08T16:44:04.740Z,28.96
2024-04-08T16:46:34.564Z,28.85
2024-04-08T16:49:02.053Z,29.19
2024-04-08T16:51:32.128Z,29.87
2024-04-08T16:53:59.357Z,30.40
2024-04-08T16:56:31.918Z,30.53
2024-04-08T16:59:05.669Z,30.40
2024-04-08T17:01:32.826Z,30.16
2024-04-08T17:04:05.379Z,29.86
2024-04-08T17:06:37.541Z,29.75
2024-04-08T17:09:07.539Z,29.73
2024-04-08T17:11:34.667Z,29.65
2024-04-08T17:14:07.061Z,30.73
2024-04-08T17:16:34.919Z,31.26
2024-04-08T17:19:05.699Z,31.40
2024-04-08T17:21:34.146Z,31.29
2024-04-08T17:24:05.080Z,31.47
2024-04-08T17:26:32.313Z,31.65
2024-04-08T17:29:02.126Z,32.10
2024-04-08T17:31:32.089Z,32.28
2024-04-08T17:34:03.951Z,31.89
2024-04-08T17:36:31.545Z,32.21
2024-04-08T17:39:03.185Z,32.26
2024-04-08T17:41:30.337Z,31.73
2024-04-08T17:44:01.821Z,32.06
2024-04-08T17:46:33.292Z,31.77
2024-04-08T17:49:05.602Z,31.78
2024-04-08T17:51:33.073Z,31.77
2024-04-08T17:54:03.192Z,31.89
2024-04-08T17:56:32.654Z,31.20
2024-04-08T17:59:03.517Z,31.14
2024-04-08T18:01:33.320Z,31.73
2024-04-08T18:04:03.679Z,31.84
2024-04-08T18:06:30.949Z,31.72
2024-04-08T18:09:01.049Z,31.39
2024-04-08T18:11:28.353Z,31.56
2024-04-08T18:13:58.533Z,31.86
2024-04-08T18:16:26.296Z,31.26
2024-04-08T18:18:59.101Z,32.33
2024-04-08T18:21:26.281Z,32.98
2024-04-08T18:23:56.136Z,32.97
2024-04-08T18:26:24.709Z,33.25
2024-04-08T18:28:57.080Z,33.34
2024-04-08T18:31:24.535Z,33.73
2024-04-08T18:33:54.823Z,33.53
2024-04-08T18:36:26.053Z,33.76
2024-04-08T18:38:55.994Z,34.03
2024-04-08T18:41:23.067Z,34.04
2024-04-08T18:43:53.289Z,34.15
2024-04-08T18:46:21.772Z,34.08
2024-04-08T18:48:51.834Z,34.33
2024-04-08T18:51:19.324Z,34.13
2024-04-08T18:53:54.265Z,33.53
2024-04-08T18:56:23.700Z,34.65
2024-04-08T18:58:56.663Z,35.08
2024-04-08T19:01:25.573Z,35.50
2024-04-08T19:03:56.145Z,35.34
2024-04-08T19:06:23.780Z,35.94
2024-04-08T19:08:56.784Z,35.45
2024-04-08T19:11:32.102Z,35.27
2024-04-08T19:14:07.114Z,35.58
2024-04-08T19:16:34.206Z,35.20
2024-04-08T19:19:04.769Z,35.58
2024-04-08T19:21:32.262Z,35.51
2024-04-08T19:24:05.143Z,36.03
2024-04-08T19:26:33.733Z,35.63
2024-04-08T19:29:03.458Z,35.83
2024-04-08T19:31:30.654Z,36.22
2024-04-08T19:34:00.609Z,36.55
2024-04-08T19:36:29.454Z,36.92
2024-04-08T19:38:59.371Z,37.06
2024-04-08T19:41:30.737Z,36.30
2024-04-08T19:44:01.249Z,36.79
2024-04-08T19:46:29.012Z,36.88
2024-04-08T19:48:59.348Z,37.29
2024-04-08T19:51:27.081Z,37.34
2024-04-08T19:53:57.265Z,37.45
2024-04-08T19:56:26.351Z,37.54
2024-04-08T19:58:59.279Z,37.36
2024-04-08T20:01:26.504Z,37.87
2024-04-08T20:03:57.110Z,38.09
2024-04-08T20:06:25.662Z,38.50
2024-04-08T20:08:55.417Z,38.73
2024-04-08T20:11:22.565Z,38.98
2024-04-08T20:13:52.354Z,38.92
2024-04-08T20:16:22.734Z,37.58
2024-04-08T20:18:53.554Z,38.85
2024-04-08T20:21:22.043Z,38.89
2024-04-08T20:23:51.844Z,37.94
2024-04-08T20:26:19.555Z,38.04
2024-04-08T20:28:49.395Z,38.18
2024-04-08T20:31:16.494Z,38.21
2024-04-08T20:33:50.556Z,38.32
2024-04-08T20:36:17.995Z,38.94
2024-04-08T20:38:48.225Z,39.03
2024-04-08T20:41:15.366Z,38.28
2024-04-08T20:43:45.755Z,39.39
2024-04-08T20:46:12.952Z,38.54
2024-04-08T20:48:43.591Z,37.96
2024-04-08T20:51:13.555Z,38.25
2024-04-08T20:53:43.293Z,39.34
2024-04-08T20:56:11.230Z,38.11
2024-04-08T20:58:40.982Z,37.98
2024-04-08T21:01:09.616Z,38.30
2024-04-08T21:03:41.100Z,37.58
2024-04-08T21:06:09.562Z,38.17
2024-04-08T21:08:43.764Z,38.53
2024-04-08T21:11:15.080Z,38.78
2024-04-08T21:13:42.454Z,39.72
2024-04-08T21:16:12.327Z,39.95
2024-04-08T21:18:39.606Z,40.41
2024-04-08T21:21:11.693Z,40.97
2024-04-08T21:23:42.234Z,39.68
2024-04-08T21:26:14.626Z,39.29
2024-04-08T21:28:44.112Z,42.03
2024-04-08T21:31:14.771Z,40.25
2024-04-08T21:33:44.043Z,40.82
2024-04-08T21:36:13.837Z,41.55
2024-04-08T21:38:43.654Z,42.30
2024-04-08T21:41:14.496Z,42.41
2024-04-08T21:43:43.870Z,40.65
2024-04-08T21:46:17.703Z,42.12
2024-04-08T21:48:45.020Z,42.54
2024-04-08T21:51:19.611Z,41.65
2024-04-08T21:53:49.405Z,42.13
2024-04-08T21:56:19.110Z,42.46
2024-04-08T21:58:47.516Z,41.89
2024-04-08T22:01:18.366Z,41.79
2024-04-08T22:03:47.056Z,42.31
2024-04-08T22:06:17.307Z,42.81
2024-04-08T22:08:46.530Z,42.31
2024-04-08T22:11:19.886Z,43.80
2024-04-08T22:13:47.525Z,42.88
2024-04-08T22:16:17.455Z,43.47
2024-04-08T22:18:44.619Z,43.57
2024-04-08T22:21:14.379Z,43.96
2024-04-08T22:23:43.301Z,43.88
2024-04-08T22:26:14.353Z,44.14
2024-04-08T22:28:44.258Z,43.21
2024-04-08T22:31:13.965Z,43.46
2024-04-08T22:33:41.260Z,45.13
2024-04-08T22:36:11.896Z,45.25
2024-04-08T22:38:39.113Z,45.04
2024-04-08T22:41:15.908Z,44.87
2024-04-08T22:43:50.511Z,44.42
2024-04-08T22:46:21.053Z,44.20
2024-04-08T22:48:48.229Z,43.69
2024-04-08T22:51:18.136Z,44.00
2024-04-08T22:53:45.294Z,45.39
2024-04-08T22:56:15.134Z,44.21
2024-04-08T22:58:42.320Z,44.80
2024-04-08T23:01:15.720Z,44.92
2024-04-08T23:03:43.503Z,45.29
2024-04-08T23:06:13.490Z,45.26
2024-04-08T23:08:40.606Z,45.34
2024-04-08T23:11:10.777Z,45.32
2024-04-08T23:13:37.916Z,45.07
2024-04-08T23:16:08.049Z,44.69
2024-04-08T23:18:38.339Z,45.14
2024-04-08T23:21:08.471Z,45.46
2024-04-08T23:23:35.677Z,45.54
2024-04-08T23:26:06.137Z,45.36
2024-04-08T23:28:33.595Z,45.76
2024-04-08T23:31:03.370Z,46.45
2024-04-08T23:33:31.023Z,46.29
2024-04-08T23:36:04.138Z,45.69
2024-04-08T23:38:32.611Z,45.65
2024-04-08T23:41:02.998Z,45.33
2024-04-08T23:43:30.315Z,45.11
2024-04-08T23:46:01.420Z,45.58
2024-04-08T23:48:30.618Z,43.91
2024-04-08T23:51:03.906Z,45.34
2024-04-08T23:53:31.008Z,44.54
2024-04-08T23:56:01.299Z,44.48
2024-04-08T23:58:28.530Z,44.42
